Time;durP1;ratioP1;P1;durP2;ratioP2;P2;SDS_P1;SDS_P2;PMS_P1;PMS_P2;Temp;Humidity;BMP_temperature;BMP_pressure;BME280_temperature;BME280_humidity;BME280_pressure;Samples;Min_cycle;Max_cycle;Signal;HPM_P1;HPM_P2
2023/07/28 00:00:42;;;;;;;39.80;16.70;;;;;;;;;;4952130;28;20046;-90
2023/07/28 00:03:11;;;;;;;37.90;16.55;;;;;;;;;;4954879;28;20046;-88
2023/07/28 00:05:37;;;;;;;44.47;17.20;;;;;;;;;;4968665;28;20726;-90
2023/07/28 00:08:03;;;;;;;45.47;17.92;;;;;;;;;;4967928;28;20141;-89
2023/07/28 00:10:29;;;;;;;30.70;15.00;;;;;;;;;;4947817;28;20082;-90
2023/07/28 00:12:57;;;;;;;34.22;15.07;;;;;;;;;;4968337;28;20085;-89
2023/07/28 00:15:26;;;;;;;26.80;13.50;;;;;;;;;;4953230;28;20062;-90
2023/07/28 00:17:59;;;;;;;33.97;14.07;;;;;;;;;;4985184;28;20053;-89
2023/07/28 00:20:31;;;;;;;31.65;14.60;;;;;;;;;;4967988;28;20093;-87
2023/07/28 00:23:00;;;;;;;37.72;15.75;;;;;;;;;;4987896;28;20046;-89
2023/07/28 00:25:26;;;;;;;33.75;15.13;;;;;;;;;;4952204;28;20038;-89
2023/07/28 00:27:52;;;;;;;29.10;14.15;;;;;;;;;;4952591;28;20129;-88
2023/07/28 00:30:21;;;;;;;37.65;15.38;;;;;;;;;;4953489;28;20034;-88
2023/07/28 00:32:47;;;;;;;34.90;16.35;;;;;;;;;;4972167;28;20042;-87
2023/07/28 00:35:16;;;;;;;44.42;16.95;;;;;;;;;;4971064;28;20038;-88
2023/07/28 00:37:42;;;;;;;42.88;18.40;;;;;;;;;;4949622;28;20057;-87
2023/07/28 00:40:08;;;;;;;37.40;18.48;;;;;;;;;;4953641;28;20054;-90
2023/07/28 00:42:35;;;;;;;45.38;19.45;;;;;;;;;;4969495;28;20407;-87
2023/07/28 00:45:01;;;;;;;40.60;19.30;;;;;;;;;;4971596;28;20502;-89
2023/07/28 00:47:27;;;;;;;38.92;18.45;;;;;;;;;;4981566;28;20092;-88
2023/07/28 00:49:53;;;;;;;36.03;18.50;;;;;;;;;;4966710;28;20198;-87
2023/07/28 00:52:25;;;;;;;42.35;19.10;;;;;;;;;;4951924;28;20038;-89
2023/07/28 00:54:54;;;;;;;41.08;19.38;;;;;;;;;;4986319;28;20522;-89
2023/07/28 00:57:23;;;;;;;45.83;20.42;;;;;;;;;;4949960;28;20072;-89
2023/07/28 00:59:49;;;;;;;39.83;19.02;;;;;;;;;;4967454;28;20050;-88
2023/07/28 01:02:15;;;;;;;36.67;18.67;;;;;;;;;;4967679;28;20046;-89
2023/07/28 01:04:41;;;;;;;36.83;19.27;;;;;;;;;;4964551;28;20490;-88
2023/07/28 01:07:13;;;;;;;53.55;22.25;;;;;;;;;;4966657;28;20323;-89
2023/07/28 01:09:59;;;;;;;41.92;20.52;;;;;;;;;;4967352;28;20042;-89
2023/07/28 01:12:25;;;;;;;51.78;23.02;;;;;;;;;;4928772;28;20050;-89
2023/07/28 01:14:51;;;;;;;57.38;23.27;;;;;;;;;;4989047;28;20463;-88
2023/07/28 01:17:19;;;;;;;56.65;23.63;;;;;;;;;;4988448;28;20046;-88
2023/07/28 01:19:45;;;;;;;56.15;26.00;;;;;;;;;;4983392;28;20089;-89
2023/07/28 01:22:17;;;;;;;59.08;26.25;;;;;;;;;;4969518;28;20081;-88
2023/07/28 01:24:53;;;;;;;59.92;27.90;;;;;;;;;;4964828;28;20129;-89
2023/07/28 01:27:19;;;;;;;50.30;24.67;;;;;;;;;;4969031;28;20066;-88
2023/07/28 01:29:45;;;;;;;56.50;27.17;;;;;;;;;;4969014;28;20049;-88
2023/07/28 01:32:12;;;;;;;66.60;28.80;;;;;;;;;;4950271;28;20144;-88
2023/07/28 01:34:38;;;;;;;59.15;28.60;;;;;;;;;;4968739;28;20061;-89
2023/07/28 01:37:04;;;;;;;52.05;26.85;;;;;;;;;;4970776;28;20045;-88
2023/07/28 01:39:39;;;;;;;65.93;29.55;;;;;;;;;;4950416;28;20205;-88
2023/07/28 01:42:08;;;;;;;75.97;33.08;;;;;;;;;;4950493;28;20546;-89
2023/07/28 01:44:34;;;;;;;55.25;28.63;;;;;;;;;;4987093;28;20673;-89
2023/07/28 01:47:00;;;;;;;65.05;29.48;;;;;;;;;;4985365;28;20123;-89
2023/07/28 01:49:26;;;;;;;56.45;27.95;;;;;;;;;;4968088;28;20499;-86
2023/07/28 01:51:52;;;;;;;55.88;27.75;;;;;;;;;;4969535;28;20895;-86
2023/07/28 01:54:18;;;;;;;69.18;30.13;;;;;;;;;;4985862;28;20050;-86
2023/07/28 01:56:44;;;;;;;49.20;25.40;;;;;;;;;;4966039;28;20092;-86
2023/07/28 01:59:11;;;;;;;56.33;26.45;;;;;;;;;;4967823;28;20115;-89
2023/07/28 02:01:37;;;;;;;52.55;26.60;;;;;;;;;;4948615;28;20494;-88
2023/07/28 02:04:03;;;;;;;52.53;24.17;;;;;;;;;;4965670;28;20050;-88
2023/07/28 02:06:31;;;;;;;51.80;25.38;;;;;;;;;;4966207;28;20507;-88
2023/07/28 02:08:59;;;;;;;53.43;25.60;;;;;;;;;;4985934;28;20050;-88
2023/07/28 02:11:25;;;;;;;55.58;26.73;;;;;;;;;;4967409;28;20085;-85
2023/07/28 02:13:52;;;;;;;54.25;24.13;;;;;;;;;;4950163;28;20042;-86
2023/07/28 02:16:18;;;;;;;62.30;25.90;;;;;;;;;;4966871;28;20070;-88
2023/07/28 02:18:44;;;;;;;49.40;23.35;;;;;;;;;;4984269;28;20384;-88
2023/07/28 02:21:10;;;;;;;64.53;25.95;;;;;;;;;;4966530;28;20053;-88
2023/07/28 02:23:36;;;;;;;68.20;26.27;;;;;;;;;;4968033;28;20406;-88
2023/07/28 02:26:04;;;;;;;51.92;24.05;;;;;;;;;;4982979;28;20046;-89
2023/07/28 02:28:33;;;;;;;60.47;23.45;;;;;;;;;;4947979;28;20050;-88
2023/07/28 02:30:59;;;;;;;65.45;24.55;;;;;;;;;;4983048;28;20081;-89
2023/07/28 02:33:29;;;;;;;52.10;24.00;;;;;;;;;;4966640;28;20042;-89
2023/07/28 02:35:56;;;;;;;48.53;22.08;;;;;;;;;;4966941;28;20054;-89
2023/07/28 02:38:22;;;;;;;56.47;23.95;;;;;;;;;;4948342;28;20452;-87
2023/07/28 02:40:48;;;;;;;61.55;24.13;;;;;;;;;;4963692;28;20584;-88
2023/07/28 02:43:14;;;;;;;59.60;23.70;;;;;;;;;;4964898;28;20046;-88
2023/07/28 02:45:40;;;;;;;55.72;22.50;;;;;;;;;;4965356;28;20062;-88
2023/07/28 02:48:09;;;;;;;63.88;24.10;;;;;;;;;;4982176;28;20064;-89
2023/07/28 02:50:38;;;;;;;64.28;24.63;;;;;;;;;;4952188;28;20043;-89
2023/07/28 02:53:05;;;;;;;55.33;22.88;;;;;;;;;;4965423;28;20082;-88
2023/07/28 02:55:31;;;;;;;59.95;24.50;;;;;;;;;;4965229;28;20097;-89
2023/07/28 02:57:57;;;;;;;61.15;23.42;;;;;;;;;;4966809;28;20827;-88
2023/07/28 03:00:23;;;;;;;62.92;23.05;;;;;;;;;;4986771;28;20183;-88
2023/07/28 03:02:49;;;;;;;47.67;22.08;;;;;;;;;;4969015;28;20046;-88
2023/07/28 03:05:15;;;;;;;54.95;23.77;;;;;;;;;;4954764;28;20495;-88
2023/07/28 03:07:41;;;;;;;47.72;21.08;;;;;;;;;;4989798;28;20065;-88
2023/07/28 03:10:12;;;;;;;47.63;21.13;;;;;;;;;;4952213;28;20034;-88
2023/07/28 03:12:38;;;;;;;;;;;;;;;;;;4967672;28;20148;-88
2023/07/28 03:15:04;;;;;;;55.33;20.25;;;;;;;;;;4987646;28;20025;-87
2023/07/28 03:17:32;;;;;;;51.42;19.92;;;;;;;;;;4969895;28;20525;-88
2023/07/28 03:20:01;;;;;;;45.42;19.20;;;;;;;;;;4969662;28;20050;-88
2023/07/28 03:22:27;;;;;;;50.78;21.67;;;;;;;;;;4967947;28;20046;-88
2023/07/28 03:24:54;;;;;;;48.33;20.20;;;;;;;;;;4951389;28;20061;-88
2023/07/28 03:27:20;;;;;;;51.50;20.50;;;;;;;;;;4949176;28;20048;-88
2023/07/28 03:29:46;;;;;;;52.50;20.35;;;;;;;;;;4985676;28;20050;-87
2023/07/28 03:32:12;;;;;;;52.83;20.88;;;;;;;;;;4967640;28;20042;-87
2023/07/28 03:34:38;;;;;;;47.13;19.08;;;;;;;;;;4988809;28;20078;-88
2023/07/28 03:37:07;;;;;;;43.53;19.33;;;;;;;;;;4987945;28;20073;-87
2023/07/28 03:39:33;;;;;;;43.13;18.45;;;;;;;;;;4987158;28;20042;-89
2023/07/28 03:41:59;;;;;;;44.35;18.92;;;;;;;;;;4969870;28;20042;-89
2023/07/28 03:44:28;;;;;;;49.03;19.35;;;;;;;;;;4983652;28;20056;-89
2023/07/28 03:46:56;;;;;;;39.65;17.50;;;;;;;;;;4969566;28;20593;-88
2023/07/28 03:49:22;;;;;;;;;;;;;;;;;;4952517;28;20050;-88
2023/07/28 03:51:48;;;;;;;46.28;18.35;;;;;;;;;;4989022;28;19932;-89
2023/07/28 03:54:14;;;;;;;41.67;18.17;;;;;;;;;;4988267;28;20037;-88
2023/07/28 03:56:40;;;;;;;42.72;17.58;;;;;;;;;;4968149;28;20211;-89
2023/07/28 03:59:06;;;;;;;43.58;17.38;;;;;;;;;;4969066;28;20042;-88
2023/07/28 04:01:32;;;;;;;43.90;17.20;;;;;;;;;;4968668;28;20073;-88
2023/07/28 04:04:03;;;;;;;40.08;17.95;;;;;;;;;;4972649;28;20049;-88
2023/07/28 04:07:04;;;;;;;46.78;16.45;;;;;;;;;;4953236;28;20089;-87
2023/07/28 04:09:30;;;;;;;44.28;17.80;;;;;;;;;;4906998;29;20501;-88
2023/07/28 04:11:57;;;;;;;41.15;17.40;;;;;;;;;;4958143;28;20058;-88
2023/07/28 04:14:25;;;;;;;35.00;16.30;;;;;;;;;;4969563;28;20043;-89
2023/07/28 04:16:54;;;;;;;35.88;16.13;;;;;;;;;;4971231;28;20532;-88
2023/07/28 04:19:20;;;;;;;33.22;15.20;;;;;;;;;;4967341;28;20054;-85
2023/07/28 04:21:49;;;;;;;37.05;16.23;;;;;;;;;;4971160;28;20104;-90
2023/07/28 04:24:15;;;;;;;34.45;15.15;;;;;;;;;;4951611;28;20070;-88
2023/07/28 04:26:42;;;;;;;36.25;16.13;;;;;;;;;;4966500;28;20058;-90
2023/07/28 04:29:08;;;;;;;36.03;15.70;;;;;;;;;;4971504;28;20445;-86
2023/07/28 04:31:34;;;;;;;33.50;15.80;;;;;;;;;;4969839;28;20055;-88
2023/07/28 04:34:03;;;;;;;38.05;16.83;;;;;;;;;;4950216;28;20046;-89
2023/07/28 04:36:29;;;;;;;34.20;16.48;;;;;;;;;;4970295;28;20464;-91
2023/07/28 04:38:55;;;;;;;34.33;16.42;;;;;;;;;;4969019;28;20097;-90
2023/07/28 04:41:21;;;;;;;36.13;16.23;;;;;;;;;;4950851;28;20058;-89
2023/07/28 04:43:47;;;;;;;43.90;16.95;;;;;;;;;;4954072;28;20133;-90
2023/07/28 04:46:13;;;;;;;33.92;15.25;;;;;;;;;;4954535;28;20161;-89
2023/07/28 04:48:39;;;;;;;38.10;16.77;;;;;;;;;;4968138;28;20570;-90
2023/07/28 04:51:05;;;;;;;36.55;14.98;;;;;;;;;;4967882;28;20494;-90
2023/07/28 04:53:31;;;;;;;31.58;14.65;;;;;;;;;;4967898;28;20546;-89
2023/07/28 04:55:58;;;;;;;29.02;14.02;;;;;;;;;;4950195;28;20529;-89
2023/07/28 04:58:24;;;;;;;32.63;16.30;;;;;;;;;;4968031;28;20054;-89
2023/07/28 05:00:50;;;;;;;27.58;14.75;;;;;;;;;;4965730;28;20057;-87
2023/07/28 05:03:16;;;;;;;30.15;13.63;;;;;;;;;;4965350;28;20046;-89
2023/07/28 05:05:45;;;;;;;28.67;13.07;;;;;;;;;;4966306;28;20978;-88
2023/07/28 05:08:11;;;;;;;28.05;14.43;;;;;;;;;;4968421;28;20406;-88
2023/07/28 05:10:42;;;;;;;27.27;13.82;;;;;;;;;;4949475;28;20057;-88
2023/07/28 05:13:08;;;;;;;31.08;14.32;;;;;;;;;;4952122;28;20054;-88
2023/07/28 05:15:34;;;;;;;27.15;13.85;;;;;;;;;;4967503;28;20050;-89
2023/07/28 05:18:03;;;;;;;32.78;15.05;;;;;;;;;;4949758;28;20037;-88
2023/07/28 05:20:29;;;;;;;31.17;13.98;;;;;;;;;;4968595;28;20139;-88
2023/07/28 05:23:03;;;;;;;29.55;13.98;;;;;;;;;;4953270;28;20073;-89
2023/07/28 05:25:41;;;;;;;30.20;13.45;;;;;;;;;;4969097;28;20519;-90
2023/07/28 05:28:10;;;;;;;30.75;13.90;;;;;;;;;;4951569;28;20077;-89
2023/07/28 05:30:39;;;;;;;29.88;14.38;;;;;;;;;;4950240;28;20053;-89
2023/07/28 05:33:07;;;;;;;32.38;14.82;;;;;;;;;;4951507;28;20050;-90
2023/07/28 05:35:44;;;;;;;28.48;12.35;;;;;;;;;;4958013;28;20121;-88
2023/07/28 05:38:19;;;;;;;33.30;14.10;;;;;;;;;;4970068;28;20050;-89
2023/07/28 05:40:45;;;;;;;27.15;13.88;;;;;;;;;;4951470;28;20053;-89
2023/07/28 05:43:11;;;;;;;29.63;14.38;;;;;;;;;;4949548;28;20042;-87
2023/07/28 05:45:37;;;;;;;25.63;12.55;;;;;;;;;;4950435;28;20043;-85
2023/07/28 05:48:06;;;;;;;39.05;13.30;;;;;;;;;;4951960;28;20687;-87
2023/07/28 05:50:38;;;;;;;29.98;13.48;;;;;;;;;;4987376;28;20046;-86
2023/07/28 05:53:04;;;;;;;30.08;12.57;;;;;;;;;;4969961;28;20046;-87
2023/07/28 05:55:30;;;;;;;29.02;13.68;;;;;;;;;;4953249;28;20537;-86
2023/07/28 05:57:59;;;;;;;22.90;12.07;;;;;;;;;;4967487;28;20457;-87
2023/07/28 06:00:28;;;;;;;24.95;10.70;;;;;;;;;;4981624;28;20129;-87
2023/07/28 06:02:57;;;;;;;19.20;10.40;;;;;;;;;;4992181;28;20410;-87
2023/07/28 06:05:23;;;;;;;18.23;9.88;;;;;;;;;;4981724;28;20057;-87
2023/07/28 06:07:52;;;;;;;26.60;10.77;;;;;;;;;;4982455;28;20038;-87
2023/07/28 06:10:18;;;;;;;24.55;9.95;;;;;;;;;;4967091;28;20046;-88
2023/07/28 06:13:08;;;;;;;23.90;10.48;;;;;;;;;;4941904;28;20051;-87
2023/07/28 06:15:37;;;;;;;21.60;10.25;;;;;;;;;;4924104;28;20371;-86
2023/07/28 06:18:09;;;;;;;22.35;9.68;;;;;;;;;;4941094;28;20051;-86
2023/07/28 06:20:35;;;;;;;21.23;8.98;;;;;;;;;;4939302;28;20055;-86
2023/07/28 06:23:04;;;;;;;20.92;9.85;;;;;;;;;;4925678;28;20055;-86
2023/07/28 06:25:36;;;;;;;19.75;8.48;;;;;;;;;;4943260;28;20062;-88
2023/07/28 06:28:02;;;;;;;19.38;8.75;;;;;;;;;;4923332;28;20070;-90
2023/07/28 06:30:28;;;;;;;19.42;7.53;;;;;;;;;;4928092;28;20090;-87
2023/07/28 06:32:57;;;;;;;15.20;7.22;;;;;;;;;;4925396;28;20051;-92
2023/07/28 06:35:27;;;;;;;15.63;6.35;;;;;;;;;;4927043;29;20074;-87
2023/07/28 06:37:53;;;;;;;13.05;6.30;;;;;;;;;;4927492;28;20087;-86
2023/07/28 06:40:25;;;;;;;15.45;5.47;;;;;;;;;;4943654;28;20058;-87
2023/07/28 06:42:51;;;;;;;12.35;5.00;;;;;;;;;;4945974;28;20061;-83
2023/07/28 06:45:17;;;;;;;9.65;4.10;;;;;;;;;;4944730;28;20349;-85
2023/07/28 06:47:44;;;;;;;9.10;4.18;;;;;;;;;;4961496;28;20364;-85
2023/07/28 06:50:11;;;;;;;8.38;4.28;;;;;;;;;;4963361;28;20491;-86
2023/07/28 06:52:37;;;;;;;5.27;3.73;;;;;;;;;;4966104;28;20202;-84
2023/07/28 06:55:04;;;;;;;7.43;3.75;;;;;;;;;;4963193;28;20138;-84
2023/07/28 06:57:31;;;;;;;10.95;4.18;;;;;;;;;;4945228;28;20061;-84
2023/07/28 06:59:57;;;;;;;6.43;3.22;;;;;;;;;;4943132;28;20507;-84
2023/07/28 07:02:23;;;;;;;5.78;3.40;;;;;;;;;;4969988;28;20046;-83
2023/07/28 07:04:49;;;;;;;6.20;3.25;;;;;;;;;;4962655;28;20050;-85
2023/07/28 07:07:15;;;;;;;8.02;3.90;;;;;;;;;;4962453;28;20069;-86
2023/07/28 07:09:41;;;;;;;6.00;3.67;;;;;;;;;;4966437;28;20532;-85
2023/07/28 07:12:10;;;;;;;6.78;3.58;;;;;;;;;;4964360;28;20187;-85
2023/07/28 07:14:36;;;;;;;6.28;3.45;;;;;;;;;;4963992;28;20121;-84
2023/07/28 07:17:03;;;;;;;4.38;3.20;;;;;;;;;;4962112;28;20174;-84
2023/07/28 07:19:29;;;;;;;6.63;3.40;;;;;;;;;;4962528;28;20057;-84
2023/07/28 07:21:55;;;;;;;9.20;3.58;;;;;;;;;;4959865;28;20052;-85
2023/07/28 07:24:21;;;;;;;6.78;3.85;;;;;;;;;;4960349;28;20043;-85
2023/07/28 07:26:47;;;;;;;6.22;3.75;;;;;;;;;;4943601;28;20850;-84
2023/07/28 07:29:14;;;;;;;6.75;4.05;;;;;;;;;;4945916;28;20458;-84
2023/07/28 07:31:40;;;;;;;7.03;3.88;;;;;;;;;;4965128;28;20129;-85
2023/07/28 07:34:06;;;;;;;7.25;3.25;;;;;;;;;;4965594;28;20335;-84
2023/07/28 07:36:33;;;;;;;8.88;3.88;;;;;;;;;;4944291;28;20055;-85
2023/07/28 07:38:59;;;;;;;5.88;3.80;;;;;;;;;;4958977;28;20066;-86
2023/07/28 07:41:26;;;;;;;5.18;3.38;;;;;;;;;;4947449;28;20050;-85
2023/07/28 07:43:55;;;;;;;9.07;3.42;;;;;;;;;;4963335;28;20520;-85
2023/07/28 07:46:21;;;;;;;5.68;3.47;;;;;;;;;;4963481;28;20043;-85
2023/07/28 07:48:47;;;;;;;6.35;3.88;;;;;;;;;;4961246;28;20053;-86
2023/07/28 07:51:14;;;;;;;6.78;2.83;;;;;;;;;;4962110;28;20415;-86
2023/07/28 07:53:43;;;;;;;6.80;3.20;;;;;;;;;;4946346;28;20038;-87
2023/07/28 07:56:10;;;;;;;9.70;3.60;;;;;;;;;;4963068;28;20399;-85
2023/07/28 07:58:36;;;;;;;8.20;3.30;;;;;;;;;;4962821;28;20156;-86
2023/07/28 08:01:02;;;;;;;7.40;3.70;;;;;;;;;;4947926;28;20051;-85
2023/07/28 08:03:28;;;;;;;7.78;3.10;;;;;;;;;;4949307;28;20039;-86
2023/07/28 08:05:54;;;;;;;7.93;3.88;;;;;;;;;;4950925;28;20034;-86
2023/07/28 08:08:21;;;;;;;8.38;4.13;;;;;;;;;;4966761;28;20112;-86
2023/07/28 08:10:47;;;;;;;8.10;3.45;;;;;;;;;;4964509;28;20503;-86
2023/07/28 08:13:13;;;;;;;7.65;3.63;;;;;;;;;;4960796;28;20069;-86
2023/07/28 08:15:39;;;;;;;6.28;3.25;;;;;;;;;;4968814;28;20078;-85
2023/07/28 08:18:05;;;;;;;8.43;3.38;;;;;;;;;;4966014;28;20038;-86
2023/07/28 08:20:31;;;;;;;9.30;2.92;;;;;;;;;;4951984;28;20055;-86
2023/07/28 08:22:57;;;;;;;8.57;3.25;;;;;;;;;;4945296;28;20039;-86
2023/07/28 08:25:23;;;;;;;9.32;2.80;;;;;;;;;;4972837;28;20053;-86
2023/07/28 08:27:56;;;;;;;7.57;2.90;;;;;;;;;;4953161;28;20047;-86
2023/07/28 08:30:22;;;;;;;5.15;2.55;;;;;;;;;;4968572;28;20054;-85
2023/07/28 08:32:51;;;;;;;8.25;2.92;;;;;;;;;;4960171;28;20523;-87
2023/07/28 08:35:17;;;;;;;8.48;2.83;;;;;;;;;;4956143;28;20057;-88
2023/07/28 08:37:44;;;;;;;8.30;3.00;;;;;;;;;;4967538;28;20055;-89
2023/07/28 08:40:11;;;;;;;8.32;2.70;;;;;;;;;;4952870;28;20074;-89
2023/07/28 08:42:38;;;;;;;9.73;3.22;;;;;;;;;;4962509;28;20065;-89
2023/07/28 08:45:08;;;;;;;7.97;2.60;;;;;;;;;;4963562;28;20522;-90
2023/07/28 08:47:35;;;;;;;10.30;3.10;;;;;;;;;;4949734;28;20454;-89
2023/07/28 08:50:09;;;;;;;5.90;2.33;;;;;;;;;;4962109;28;20039;-89
2023/07/28 08:52:38;;;;;;;6.78;2.40;;;;;;;;;;4957002;28;20051;-88
2023/07/28 08:55:04;;;;;;;4.15;2.28;;;;;;;;;;4946550;28;20720;-89
2023/07/28 08:57:31;;;;;;;10.02;2.70;;;;;;;;;;4943023;28;20211;-90
2023/07/28 08:59:57;;;;;;;9.90;2.70;;;;;;;;;;4944563;28;20079;-90
2023/07/28 09:02:23;;;;;;;5.68;2.45;;;;;;;;;;4968535;28;20058;-90
2023/07/28 09:04:52;;;;;;;8.55;2.92;;;;;;;;;;4947242;28;20042;-89
2023/07/28 09:07:27;;;;;;;4.78;2.30;;;;;;;;;;4942553;28;20098;-88
2023/07/28 09:09:59;;;;;;;5.47;2.60;;;;;;;;;;4948561;28;20047;-90
2023/07/28 09:12:34;;;;;;;7.95;2.60;;;;;;;;;;4955889;28;20572;-88
2023/07/28 09:15:08;;;;;;;6.32;2.17;;;;;;;;;;4968317;28;20536;-89
2023/07/28 09:17:41;;;;;;;3.40;2.40;;;;;;;;;;4970417;28;20050;-89
2023/07/28 09:20:08;;;;;;;4.93;2.33;;;;;;;;;;4971022;28;20133;-90
2023/07/28 09:22:34;;;;;;;4.60;2.20;;;;;;;;;;4969852;28;20050;-91
2023/07/28 09:25:11;;;;;;;5.88;2.20;;;;;;;;;;4967322;28;20042;-88
2023/07/28 09:27:39;;;;;;;7.88;1.90;;;;;;;;;;4952278;28;20129;-88
2023/07/28 09:30:07;;;;;;;5.95;1.92;;;;;;;;;;4969801;28;20047;-90
2023/07/28 09:32:35;;;;;;;;;;;;;;;;;;4952451;28;20058;-88
2023/07/28 09:35:09;;;;;;;4.18;1.98;;;;;;;;;;4953182;28;19926;-89
2023/07/28 09:37:37;;;;;;;5.95;2.22;;;;;;;;;;4970224;28;20399;-88
2023/07/28 09:40:04;;;;;;;4.45;2.00;;;;;;;;;;4954727;28;20046;-88
2023/07/28 09:42:31;;;;;;;6.50;1.90;;;;;;;;;;4969626;28;20058;-89
2023/07/28 09:44:57;;;;;;;5.15;1.77;;;;;;;;;;4967263;28;20050;-90
2023/07/28 09:47:24;;;;;;;4.57;2.08;;;;;;;;;;4952970;28;20487;-88
2023/07/28 09:49:53;;;;;;;5.50;1.80;;;;;;;;;;4968792;28;20045;-89
2023/07/28 09:52:31;;;;;;;3.30;1.67;;;;;;;;;;4967034;28;20537;-89
2023/07/28 09:55:00;;;;;;;6.95;1.77;;;;;;;;;;4984578;28;20397;-88
2023/07/28 09:57:28;;;;;;;3.35;1.80;;;;;;;;;;4953583;28;20046;-90
2023/07/28 09:59:57;;;;;;;5.10;2.15;;;;;;;;;;4971742;28;20479;-89
2023/07/28 10:02:26;;;;;;;4.40;2.08;;;;;;;;;;4969367;28;20419;-89
2023/07/28 10:04:55;;;;;;;3.83;2.20;;;;;;;;;;4983275;28;20046;-88
2023/07/28 10:07:25;;;;;;;7.80;2.30;;;;;;;;;;4968218;28;20361;-88
2023/07/28 10:09:51;;;;;;;4.50;2.45;;;;;;;;;;4967234;28;20054;-89
2023/07/28 10:12:29;;;;;;;4.10;2.40;;;;;;;;;;4950461;28;20066;-89
2023/07/28 10:14:55;;;;;;;;;;;;;;;;;;4951525;28;20604;-89
2023/07/28 10:17:33;;;;;;;6.35;2.60;;;;;;;;;;4984756;28;19918;-89
2023/07/28 10:19:59;;;;;;;5.28;2.40;;;;;;;;;;4969490;28;20054;-87
2023/07/28 10:22:27;;;;;;;6.05;2.65;;;;;;;;;;4964251;28;20057;-88
2023/07/28 10:24:54;;;;;;;6.87;2.70;;;;;;;;;;4966850;28;20042;-88
2023/07/28 10:27:29;;;;;;;6.18;2.53;;;;;;;;;;4966436;28;20050;-88
2023/07/28 10:29:59;;;;;;;9.63;2.65;;;;;;;;;;4968452;28;20072;-88
2023/07/28 10:32:37;;;;;;;8.68;2.55;;;;;;;;;;4970205;28;20046;-89
2023/07/28 10:35:10;;;;;;;4.43;2.13;;;;;;;;;;4969687;28;20068;-88
2023/07/28 10:37:39;;;;;;;4.68;2.25;;;;;;;;;;4967782;28;20057;-87
2023/07/28 10:40:27;;;;;;;7.35;3.08;;;;;;;;;;4966197;28;20085;-88
2023/07/28 10:42:53;;;;;;;;;;;;;;;;;;4969273;28;20057;-88
2023/07/28 10:45:20;;;;;;;6.32;3.10;;;;;;;;;;4966688;28;19926;-87
2023/07/28 10:47:47;;;;;;;6.20;2.65;;;;;;;;;;4967057;28;20157;-89
2023/07/28 10:50:14;;;;;;;5.07;2.50;;;;;;;;;;4950947;28;20127;-89
2023/07/28 10:52:40;;;;;;;5.20;2.40;;;;;;;;;;4951399;28;20141;-88
2023/07/28 10:55:13;;;;;;;7.10;2.55;;;;;;;;;;4953390;28;20061;-88
2023/07/28 10:57:39;;;;;;;5.70;2.45;;;;;;;;;;4990989;28;20107;-89
2023/07/28 11:00:07;;;;;;;4.40;2.40;;;;;;;;;;4953357;28;20096;-88
2023/07/28 11:02:33;;;;;;;5.65;2.30;;;;;;;;;;4970224;28;20061;-88
2023/07/28 11:04:59;;;;;;;4.63;2.30;;;;;;;;;;4968054;28;20167;-87
2023/07/28 11:07:28;;;;;;;8.43;2.42;;;;;;;;;;4966856;28;20502;-88
2023/07/28 11:09:54;;;;;;;4.63;2.25;;;;;;;;;;4951084;28;20371;-89
2023/07/28 11:12:26;;;;;;;4.75;2.63;;;;;;;;;;4953658;28;20153;-88
2023/07/28 11:14:53;;;;;;;6.50;2.10;;;;;;;;;;4969220;28;20081;-89
2023/07/28 11:17:19;;;;;;;5.95;2.55;;;;;;;;;;4953045;28;20042;-88
2023/07/28 11:19:45;;;;;;;6.15;2.35;;;;;;;;;;4986571;28;20050;-88
2023/07/28 11:22:17;;;;;;;4.72;2.20;;;;;;;;;;4950697;28;20133;-87
2023/07/28 11:24:45;;;;;;;5.95;2.33;;;;;;;;;;4950274;28;20038;-87
2023/07/28 11:27:11;;;;;;;5.82;2.50;;;;;;;;;;4951659;28;20514;-87
2023/07/28 11:29:41;;;;;;;6.38;2.63;;;;;;;;;;4952710;28;20547;-87
2023/07/28 11:32:09;;;;;;;4.88;2.40;;;;;;;;;;4952658;28;20054;-87
2023/07/28 11:34:41;;;;;;;7.72;3.10;;;;;;;;;;4953621;28;20054;-87
2023/07/28 11:37:10;;;;;;;4.47;2.47;;;;;;;;;;4953347;28;20088;-88
2023/07/28 11:39:36;;;;;;;7.03;2.20;;;;;;;;;;4990539;28;20093;-87
2023/07/28 11:42:02;;;;;;;4.32;2.17;;;;;;;;;;4970572;28;20419;-87
2023/07/28 11:44:29;;;;;;;5.38;1.90;;;;;;;;;;4969319;28;20517;-88
2023/07/28 11:46:55;;;;;;;3.10;1.75;;;;;;;;;;4969990;28;20054;-87
2023/07/28 11:49:24;;;;;;;4.72;1.65;;;;;;;;;;4955350;28;20038;-85
2023/07/28 11:51:52;;;;;;;5.35;2.58;;;;;;;;;;4971403;28;20052;-86
2023/07/28 11:54:22;;;;;;;6.85;2.05;;;;;;;;;;4972822;28;20054;-88
2023/07/28 11:56:49;;;;;;;4.38;2.25;;;;;;;;;;4971509;28;20046;-87
2023/07/28 11:59:17;;;;;;;4.57;1.90;;;;;;;;;;4956392;28;20121;-88
2023/07/28 12:02:00;;;;;;;5.50;2.22;;;;;;;;;;4971460;28;20495;-86
2023/07/28 12:04:33;;;;;;;3.72;1.80;;;;;;;;;;4953299;28;20531;-88
2023/07/28 12:07:06;;;;;;;5.90;2.22;;;;;;;;;;4968336;28;20054;-87
2023/07/28 12:09:49;;;;;;;6.68;2.00;;;;;;;;;;4970961;28;20058;-87
2023/07/28 12:12:19;;;;;;;6.25;2.22;;;;;;;;;;4971067;28;20113;-87
2023/07/28 12:14:47;;;;;;;4.72;2.35;;;;;;;;;;4971039;28;20057;-87
2023/07/28 12:17:20;;;;;;;5.03;2.30;;;;;;;;;;4989087;28;20506;-88
2023/07/28 12:19:59;;;;;;;8.13;2.38;;;;;;;;;;4968420;28;20525;-86
2023/07/28 12:22:25;;;;;;;9.02;2.60;;;;;;;;;;4970393;28;20054;-87
2023/07/28 12:24:52;;;;;;;3.40;1.90;;;;;;;;;;4954809;28;20737;-88
2023/07/28 12:27:23;;;;;;;6.53;2.33;;;;;;;;;;4988556;28;20073;-87
2023/07/28 12:29:55;;;;;;;5.55;1.90;;;;;;;;;;4955244;28;20137;-88
2023/07/28 12:32:21;;;;;;;3.60;2.00;;;;;;;;;;4955848;28;20136;-87
2023/07/28 12:34:48;;;;;;;4.70;2.08;;;;;;;;;;4954805;28;20097;-87
2023/07/28 12:37:14;;;;;;;4.32;1.33;;;;;;;;;;4969416;28;20093;-88
2023/07/28 12:39:41;;;;;;;4.40;1.88;;;;;;;;;;4969410;28;20053;-87
2023/07/28 12:42:10;;;;;;;4.30;1.73;;;;;;;;;;4952304;28;20050;-87
2023/07/28 12:44:37;;;;;;;3.17;1.73;;;;;;;;;;4968997;28;20540;-87
2023/07/28 12:47:04;;;;;;;4.88;2.05;;;;;;;;;;4970124;28;20046;-87
2023/07/28 12:49:30;;;;;;;6.38;2.60;;;;;;;;;;4952227;28;20108;-87
2023/07/28 12:52:08;;;;;;;4.63;2.67;;;;;;;;;;4967871;28;20451;-87
2023/07/28 12:54:39;;;;;;;5.00;2.67;;;;;;;;;;4984863;28;20054;-86
2023/07/28 12:57:09;;;;;;;4.15;2.40;;;;;;;;;;4970129;28;20084;-87
2023/07/28 12:59:35;;;;;;;4.18;2.45;;;;;;;;;;4955021;28;20057;-88
2023/07/28 13:02:01;;;;;;;4.00;2.20;;;;;;;;;;4971472;28;20410;-87
2023/07/28 13:04:29;;;;;;;10.30;3.13;;;;;;;;;;4969124;28;20490;-87
2023/07/28 13:06:55;;;;;;;3.75;2.00;;;;;;;;;;4967849;28;20073;-87
2023/07/28 13:09:22;;;;;;;6.00;2.47;;;;;;;;;;4951698;28;20057;-87
2023/07/28 13:11:48;;;;;;;4.55;2.10;;;;;;;;;;4983522;28;20108;-88
2023/07/28 13:14:16;;;;;;;4.80;2.33;;;;;;;;;;4986391;28;20410;-87
2023/07/28 13:16:44;;;;;;;5.03;2.50;;;;;;;;;;4963039;28;20046;-87
2023/07/28 13:19:10;;;;;;;7.35;2.80;;;;;;;;;;4975652;28;20458;-87
2023/07/28 13:21:36;;;;;;;5.85;2.60;;;;;;;;;;4968342;28;20050;-88
2023/07/28 13:24:03;;;;;;;4.78;2.50;;;;;;;;;;4988285;28;20046;-88
2023/07/28 13:26:29;;;;;;;6.45;3.00;;;;;;;;;;4967963;28;20046;-87
2023/07/28 13:28:58;;;;;;;5.90;2.80;;;;;;;;;;4967874;28;20402;-87
2023/07/28 13:31:24;;;;;;;4.22;2.85;;;;;;;;;;4952526;28;20061;-88
2023/07/28 13:33:50;;;;;;;7.03;2.72;;;;;;;;;;4954292;28;20050;-87
2023/07/28 13:36:18;;;;;;;6.45;2.50;;;;;;;;;;4953179;28;20177;-88
2023/07/28 13:38:44;;;;;;;3.63;2.40;;;;;;;;;;4954612;28;20443;-87
2023/07/28 13:41:10;;;;;;;3.85;2.10;;;;;;;;;;4953881;28;20272;-87
2023/07/28 13:43:37;;;;;;;6.35;1.88;;;;;;;;;;4952075;28;20343;-88
2023/07/28 13:46:06;;;;;;;6.55;2.38;;;;;;;;;;4978328;28;20598;-86
2023/07/28 13:48:44;;;;;;;7.63;3.17;;;;;;;;;;4956243;28;20042;-87
2023/07/28 13:51:15;;;;;;;6.32;2.80;;;;;;;;;;4986712;28;20038;-87
2023/07/28 13:53:47;;;;;;;7.93;2.80;;;;;;;;;;4969770;28;20337;-87
2023/07/28 13:56:13;;;;;;;5.30;2.42;;;;;;;;;;4967841;28;20082;-86
2023/07/28 13:58:42;;;;;;;5.90;2.03;;;;;;;;;;4967015;28;20666;-88
2023/07/28 14:01:08;;;;;;;4.63;1.98;;;;;;;;;;4967943;28;20049;-88
2023/07/28 14:03:37;;;;;;;5.22;2.17;;;;;;;;;;4967960;28;20478;-86
2023/07/28 14:06:03;;;;;;;4.22;2.03;;;;;;;;;;4985039;28;20038;-86
2023/07/28 14:08:37;;;;;;;4.90;2.08;;;;;;;;;;4984771;28;20050;-87
2023/07/28 14:11:06;;;;;;;3.92;2.10;;;;;;;;;;4951652;28;20146;-87
2023/07/28 14:13:35;;;;;;;4.40;3.30;;;;;;;;;;4968056;28;20068;-87
2023/07/28 14:16:01;;;;;;;4.45;2.40;;;;;;;;;;4985412;28;20054;-86
2023/07/28 14:18:27;;;;;;;6.35;2.85;;;;;;;;;;4987881;28;20128;-86
2023/07/28 14:20:53;;;;;;;4.72;2.97;;;;;;;;;;4986806;28;20050;-86
2023/07/28 14:23:27;;;;;;;6.95;3.35;;;;;;;;;;4967598;28;20157;-87
2023/07/28 14:25:53;;;;;;;4.53;3.08;;;;;;;;;;4967029;28;20539;-85
2023/07/28 14:28:19;;;;;;;8.82;2.80;;;;;;;;;;4967229;28;20418;-87
2023/07/28 14:30:46;;;;;;;4.82;2.67;;;;;;;;;;4953047;28;20097;-86
2023/07/28 14:33:15;;;;;;;3.72;2.42;;;;;;;;;;4966419;28;20105;-86
2023/07/28 14:35:41;;;;;;;6.00;2.85;;;;;;;;;;4950981;28;20054;-86
2023/07/28 14:38:07;;;;;;;4.30;2.50;;;;;;;;;;4952513;28;20137;-86